• Join FlightAware (Why Join?)
  • Login
  • US Flag 
Gobble Gobble! 
11:05AM EST


 

Airport Tracker/Info


-or-


 

Live Flight TrackerFlight Track Log ✈ SLI2466 ✈ 09-Sep-2013 ✈ MMVA / VSA - MMMD / MID

Flight Track Log - Related Links

Times and Time Zones

All times are in EDT time to prevent confusion due to time zone crossing. See the SLI2466 flight status page for this flight to view local times or setup timezone preferences in your user account.

Time Position Orientation Groundspeed Altitude Reporting Facility
EDT Latitude Longitude Course Direction KTS MPH feet Rate Location/Type
01:21PM 18.1426 -92.6648 45° Northeast  Level Estimated
01:22PM 18.1911 -92.6139 45° Northeast  Level Estimated
01:23PM 18.2396 -92.5630 45° Northeast  Level Estimated
01:24PM 18.2881 -92.5120 45° Northeast  Level Estimated
01:25PM 18.3365 -92.4611 45° Northeast  Level Estimated
01:26PM 18.3850 -92.4100 45° Northeast  Level Estimated
01:27PM 18.4334 -92.3590 45° Northeast  Level Estimated
01:28PM 18.4818 -92.3079 45° Northeast  Level Estimated
01:29PM 18.5302 -92.2568 45° Northeast  Level Estimated
01:30PM 18.5786 -92.2057 45° Northeast  Level Estimated
01:31PM 18.6270 -92.1545 45° Northeast  Level Estimated
01:32PM 18.6754 -92.1033 45° Northeast  Level Estimated
01:33PM 18.7237 -92.0521 45° Northeast  Level Estimated
01:34PM 18.7721 -92.0009 45° Northeast  Level Estimated
01:35PM 18.8204 -91.9496 45° Northeast  Level Estimated
01:36PM 18.8687 -91.8983 45° Northeast  Level Estimated
01:37PM 18.9170 -91.8469 45° Northeast  Level Estimated
01:38PM 18.9653 -91.7956 45° Northeast  Level Estimated
01:39PM 19.0136 -91.7442 45° Northeast  Level Estimated
01:40PM 19.0618 -91.6928 45° Northeast  Level Estimated
01:41PM 19.1101 -91.6413 45° Northeast  Level Estimated
01:42PM 19.1583 -91.5898 45° Northeast  Level Estimated
01:43PM 19.2065 -91.5383 45° Northeast  Level Estimated
01:44PM 19.2547 -91.4868 45° Northeast  Level Estimated
01:45PM 19.3029 -91.4352 45° Northeast  Level Estimated
01:46PM 19.3511 -91.3836 45° Northeast  Level Estimated
01:47PM 19.3992 -91.3319 45° Northeast  Level Estimated
01:48PM 19.4473 -91.2803 45° Northeast  Level Estimated
01:49PM 19.4955 -91.2286 45° Northeast  Level Estimated
01:50PM 19.5436 -91.1768 45° Northeast  Level Estimated
01:51PM 19.5917 -91.1251 45° Northeast  Level Estimated
01:52PM 19.6398 -91.0733 45° Northeast  Level Estimated
01:53PM 19.6878 -91.0215 45° Northeast  Level Estimated
01:54PM 19.7359 -90.9696 45° Northeast  Level Estimated
01:55PM 19.7839 -90.9177 45° Northeast  Level Estimated
01:56PM 19.8319 -90.8658 45° Northeast  Level Estimated
01:57PM 19.8800 -90.8139 45° Northeast  Level Estimated
01:58PM 19.9279 -90.7619 46° Northeast  Level Estimated
01:59PM 19.9759 -90.7099 46° Northeast  Level Estimated
02:00PM 20.0239 -90.6579 46° Northeast  Level Estimated
02:01PM 20.0718 -90.6058 46° Northeast  Level Estimated
02:02PM 20.1198 -90.5537 46° Northeast  Level Estimated
02:03PM 20.1677 -90.5015 46° Northeast  Level Estimated
02:04PM 20.2156 -90.4494 46° Northeast  Level Estimated
02:05PM 20.2635 -90.3972 46° Northeast  Level Estimated
02:06PM 20.3113 -90.3449 46° Northeast  Level Estimated
02:07PM 20.3592 -90.2927 46° Northeast  Level Estimated
02:08PM 20.4070 -90.2404 46° Northeast  Level Estimated
02:09PM 20.4548 -90.1880 46° Northeast  Level Estimated
02:10PM 20.5027 -90.1357 46° Northeast  Level Estimated
02:11PM 20.5504 -90.0833 46° Northeast  Level Estimated
02:12PM 20.5982 -90.0309 46° Northeast  Level Estimated
02:13PM 20.6460 -89.9784 46° Northeast  Level Estimated
02:14PM 20.6937 -89.9259 46° Northeast  Level Estimated
02:15PM 20.7415 -89.8734 46° Northeast  Level Estimated
02:16PM 20.7892 -89.8208 46° Northeast  Level Estimated
02:17PM 20.8369 -89.7682 46° Northeast  Level Estimated
02:18PM 20.8846 -89.7156 46° Northeast  Level Estimated
02:19PM 20.9322 -89.6629 46° Northeast  Level Estimated
02:20PM 20.9370 -89.6577 46° Northeast  Level Estimated
02:21PM 20.9370 -89.6577 298° West  Level Estimated
02:22PM 20.9370 -89.6577 298° West  Level Estimated
02:23PM 20.9370 -89.6577 298° West  Level Estimated
02:24PM 20.9370 -89.6577 298° West  Level Estimated
02:25PM 20.9370 -89.6577 298° West  Level Estimated
02:26PM 20.9370 -89.6577 298° West  Level Estimated
02:27PM 20.9370 -89.6577 298° West  Level Estimated
02:28PM 20.9370 -89.6577 298° West  Level Estimated
02:29PM 20.9370 -89.6577 298° West  Level Estimated
02:30PM 20.9370 -89.6577 298° West  Level Estimated
02:31PM 20.9370 -89.6577 298° West  Level Estimated
02:32PM 20.9370 -89.6577 298° West  Level Estimated
02:33PM 20.9370 -89.6577 298° West  Level Estimated
02:34PM 20.9370 -89.6577 298° West  Level Estimated
02:35PM 20.9370 -89.6577 298° West  Level Estimated